createdAt,value
2023-07-18T00:00:28.098Z,96778.63
2023-07-18T00:02:54.487Z,96772.75
2023-07-18T00:05:20.841Z,96769.03
2023-07-18T00:07:47.231Z,96766.22
2023-07-18T00:10:13.574Z,96772.78
2023-07-18T00:12:39.895Z,96773.56
2023-07-18T00:15:06.289Z,96766.94
2023-07-18T00:17:32.695Z,96761.19
2023-07-18T00:19:59.046Z,96771.03
2023-07-18T00:22:25.462Z,96768.13
2023-07-18T00:24:51.996Z,96767.13
2023-07-18T00:27:18.373Z,96761.59
2023-07-18T00:29:44.699Z,96770.38
2023-07-18T00:32:11.075Z,96763.28
2023-07-18T00:34:37.482Z,96759.09
2023-07-18T00:37:03.826Z,96757.16
2023-07-18T00:39:30.208Z,96763.56
2023-07-18T00:41:56.601Z,96760.16
2023-07-18T00:44:22.966Z,96767.56
2023-07-18T00:46:49.390Z,96762.09
2023-07-18T00:49:15.723Z,96761.50
2023-07-18T00:51:42.103Z,96765.59
2023-07-18T00:54:10.338Z,96763.81
2023-07-18T00:56:37.004Z,96759.25
2023-07-18T00:59:03.382Z,96759.13
2023-07-18T01:01:29.835Z,96762.94
2023-07-18T01:03:56.272Z,96762.72
2023-07-18T01:06:22.652Z,96757.47
2023-07-18T01:08:48.990Z,96764.00
2023-07-18T01:11:15.325Z,96762.72
2023-07-18T01:13:41.650Z,96755.97
2023-07-18T01:16:08.037Z,96748.84
2023-07-18T01:18:34.379Z,96749.84
2023-07-18T01:21:00.789Z,96749.56
2023-07-18T01:23:27.175Z,96755.50
2023-07-18T01:25:53.567Z,96751.41
2023-07-18T01:28:19.902Z,96748.44
2023-07-18T01:30:46.248Z,96745.69
2023-07-18T01:33:12.576Z,96747.03
2023-07-18T01:35:38.918Z,96746.06
2023-07-18T01:38:05.298Z,96742.88
2023-07-18T01:40:31.651Z,96742.81
2023-07-18T01:42:58.041Z,96732.19
2023-07-18T01:45:24.399Z,96737.16
2023-07-18T01:47:50.904Z,96742.81
2023-07-18T01:50:17.433Z,96737.47
2023-07-18T01:52:43.850Z,96732.06
2023-07-18T01:55:10.199Z,96730.56
2023-07-18T01:57:36.541Z,96735.03
2023-07-18T02:00:02.923Z,96734.41
2023-07-18T02:02:29.385Z,96739.78
2023-07-18T02:04:55.814Z,96729.06
2023-07-18T02:07:22.167Z,96724.94
2023-07-18T02:09:48.544Z,96720.94
2023-07-18T02:12:14.880Z,96721.75
2023-07-18T02:14:41.252Z,96724.72
2023-07-18T02:17:07.747Z,96725.81
2023-07-18T02:19:34.191Z,96720.84
2023-07-18T02:22:00.583Z,96714.00
2023-07-18T02:24:26.919Z,96705.69
2023-07-18T02:26:53.292Z,96722.31
2023-07-18T02:29:19.616Z,96722.91
2023-07-18T02:31:45.929Z,96715.56
2023-07-18T02:34:12.296Z,96724.84
2023-07-18T02:36:38.672Z,96718.72
2023-07-18T02:39:05.056Z,96727.69
2023-07-18T02:41:31.419Z,96727.09
2023-07-18T02:43:57.738Z,96727.69
2023-07-18T02:46:24.172Z,96726.69
2023-07-18T02:48:50.559Z,96716.59
2023-07-18T02:51:17.199Z,96717.19
2023-07-18T02:53:43.821Z,96717.81
2023-07-18T02:56:10.152Z,96717.22
2023-07-18T02:58:36.497Z,96719.59
2023-07-18T03:01:02.865Z,96720.78
2023-07-18T03:03:29.328Z,96718.03
2023-07-18T03:05:55.756Z,96716.44
2023-07-18T03:08:22.099Z,96720.84
2023-07-18T03:10:48.442Z,96713.22
2023-07-18T03:13:14.793Z,96715.41
2023-07-18T03:15:41.101Z,96712.38
2023-07-18T03:18:07.555Z,96717.72
2023-07-18T03:20:34.462Z,96712.69
2023-07-18T03:23:00.805Z,96717.91
2023-07-18T03:25:27.220Z,96719.00
2023-07-18T03:27:53.566Z,96714.66
2023-07-18T03:30:19.935Z,96714.19
2023-07-18T03:32:46.299Z,96707.72
2023-07-18T03:35:12.745Z,96712.69
2023-07-18T03:37:39.158Z,96716.84
2023-07-18T03:40:05.506Z,96714.19
2023-07-18T03:42:31.852Z,96711.06
2023-07-18T03:44:58.240Z,96699.88
2023-07-18T03:47:24.649Z,96703.75
2023-07-18T03:49:51.042Z,96700.88
2023-07-18T03:52:17.398Z,96705.25
2023-07-18T03:54:43.777Z,96702.09
2023-07-18T03:57:10.125Z,96709.16
2023-07-18T03:59:36.519Z,96708.34
2023-07-18T04:02:02.938Z,96717.28
2023-07-18T04:04:29.307Z,96721.47
2023-07-18T04:06:55.678Z,96721.44
2023-07-18T04:09:22.125Z,96720.69
2023-07-18T04:11:48.527Z,96710.50
2023-07-18T04:14:14.880Z,96714.75
2023-07-18T04:16:41.295Z,96714.19
2023-07-18T04:19:07.691Z,96716.78
2023-07-18T04:21:34.244Z,96716.31
2023-07-18T04:24:00.602Z,96702.09
2023-07-18T04:26:26.927Z,96703.41
2023-07-18T04:28:53.256Z,96713.50
2023-07-18T04:31:19.928Z,96708.63
2023-07-18T04:33:46.470Z,96701.97
2023-07-18T04:36:12.879Z,96710.66
2023-07-18T04:38:39.273Z,96709.50
2023-07-18T04:41:05.711Z,96712.47
2023-07-18T04:43:32.061Z,96724.41
2023-07-18T04:45:58.543Z,96719.06
2023-07-18T04:48:24.951Z,96721.84
2023-07-18T04:50:51.309Z,96714.31
2023-07-18T04:53:17.623Z,96715.94
2023-07-18T04:55:43.950Z,96713.38
2023-07-18T04:58:10.272Z,96707.75
2023-07-18T05:00:36.745Z,96710.94
2023-07-18T05:03:03.317Z,96712.00
2023-07-18T05:05:29.739Z,96705.59
2023-07-18T05:07:56.075Z,96704.50
2023-07-18T05:10:22.430Z,96705.03
2023-07-18T05:12:48.818Z,96698.00
2023-07-18T05:15:15.170Z,96706.53
2023-07-18T05:17:41.528Z,96703.16
2023-07-18T05:20:07.985Z,96709.31
2023-07-18T05:22:34.383Z,96706.34
2023-07-18T05:25:00.801Z,96709.09
2023-07-18T05:27:27.156Z,96706.94
2023-07-18T05:29:53.529Z,96701.59
2023-07-18T05:32:19.861Z,96696.69
2023-07-18T05:34:46.180Z,96702.13
2023-07-18T05:37:12.499Z,96693.19
2023-07-18T05:39:38.872Z,96696.97
2023-07-18T05:42:05.200Z,96696.00
2023-07-18T05:44:31.515Z,96701.72
2023-07-18T05:46:57.831Z,96698.38
2023-07-18T05:49:24.217Z,96698.19
2023-07-18T05:51:50.569Z,96685.72
2023-07-18T05:54:16.897Z,96684.53
2023-07-18T05:56:43.222Z,96685.53
2023-07-18T05:59:09.573Z,96687.69
2023-07-18T06:01:36.010Z,96684.84
2023-07-18T06:04:02.446Z,96684.34
2023-07-18T06:06:28.821Z,96675.84
2023-07-18T06:08:55.189Z,96679.81
2023-07-18T06:11:21.544Z,96677.22
2023-07-18T06:13:47.956Z,96680.78
2023-07-18T06:16:14.320Z,96684.16
2023-07-18T06:18:40.758Z,96677.47
2023-07-18T06:21:07.149Z,96678.22
2023-07-18T06:23:33.469Z,96680.88
2023-07-18T06:25:59.838Z,96671.88
2023-07-18T06:28:26.186Z,96670.25
2023-07-18T06:30:52.625Z,96663.94
2023-07-18T06:33:18.968Z,96666.78
2023-07-18T06:35:45.298Z,96668.41
2023-07-18T06:38:11.682Z,96676.41
2023-07-18T06:40:38.014Z,96672.41
2023-07-18T06:43:04.339Z,96678.53
2023-07-18T06:45:30.672Z,96672.31
2023-07-18T06:47:57.083Z,96666.84
2023-07-18T06:50:23.510Z,96674.31
2023-07-18T06:52:49.865Z,96676.88
2023-07-18T06:55:16.306Z,96679.22
2023-07-18T06:57:44.732Z,96673.41
2023-07-18T07:00:11.377Z,96678.91
2023-07-18T07:02:37.775Z,96666.84
2023-07-18T07:05:04.206Z,96661.88
2023-07-18T07:07:30.576Z,96657.00
2023-07-18T07:09:56.960Z,96662.81
2023-07-18T07:12:35.354Z,96646.78
2023-07-18T07:15:02.904Z,96653.13
2023-07-18T07:17:29.281Z,96655.88
2023-07-18T07:19:55.693Z,96652.91
2023-07-18T07:22:22.069Z,96654.06
2023-07-18T07:24:48.401Z,96649.38
2023-07-18T07:27:14.728Z,96636.97
2023-07-18T07:29:41.059Z,96636.72
2023-07-18T07:32:07.435Z,96632.97
2023-07-18T07:34:36.117Z,96627.41
2023-07-18T07:37:03.222Z,96622.25
2023-07-18T07:39:29.557Z,96623.25
2023-07-18T07:41:55.938Z,96625.16
2023-07-18T07:44:22.282Z,96611.94
2023-07-18T07:46:48.725Z,96607.25
2023-07-18T07:49:15.190Z,96603.47
2023-07-18T07:51:41.635Z,96608.38
2023-07-18T07:54:07.968Z,96591.13
2023-07-18T07:56:34.313Z,96585.94
2023-07-18T07:59:11.106Z,96573.00
2023-07-18T08:01:38.602Z,96575.25
2023-07-18T08:04:05.061Z,96586.59
2023-07-18T08:06:31.580Z,96621.28
2023-07-18T08:08:57.910Z,96625.69
2023-07-18T08:11:24.287Z,96602.22
2023-07-18T08:13:50.672Z,96580.16
2023-07-18T08:16:17.088Z,96565.22
2023-07-18T08:18:43.447Z,96562.84
2023-07-18T08:21:09.808Z,96545.38
2023-07-18T08:23:36.139Z,96553.41
2023-07-18T08:26:02.539Z,96548.50
2023-07-18T08:28:28.963Z,96545.84
2023-07-18T08:30:55.309Z,96547.88
2023-07-18T08:33:21.708Z,96548.50
2023-07-18T08:35:48.053Z,96553.25
2023-07-18T08:38:14.373Z,96539.22
2023-07-18T08:40:40.790Z,96540.66
2023-07-18T08:43:07.143Z,96534.03
2023-07-18T08:45:33.493Z,96535.63
2023-07-18T08:47:59.860Z,96524.91
2023-07-18T08:50:26.245Z,96532.78
2023-07-18T08:52:52.887Z,96537.53
2023-07-18T08:55:19.316Z,96544.00
2023-07-18T08:57:45.696Z,96534.69
2023-07-18T09:00:12.070Z,96542.91
2023-07-18T09:02:38.529Z,96537.06
2023-07-18T09:05:04.898Z,96536.59
2023-07-18T09:07:31.371Z,96523.97
2023-07-18T09:09:57.715Z,96523.66
2023-07-18T09:12:24.040Z,96529.19
2023-07-18T09:14:50.425Z,96530.63
2023-07-18T09:17:16.942Z,96520.81
2023-07-18T09:19:43.346Z,96520.34
2023-07-18T09:22:09.791Z,96508.06
2023-07-18T09:24:36.218Z,96502.84
2023-07-18T09:27:02.557Z,96502.19
2023-07-18T09:29:28.924Z,96502.19
2023-07-18T09:31:55.357Z,96499.66
2023-07-18T09:34:21.818Z,96494.59
2023-07-18T09:36:48.161Z,96486.84
2023-07-18T09:39:14.542Z,96484.16
2023-07-18T09:41:40.932Z,96478.66
2023-07-18T09:44:30.623Z,96480.69
2023-07-18T09:46:53.622Z,96470.91
2023-07-18T09:49:20.007Z,96464.72
2023-07-18T09:51:46.339Z,96465.53
2023-07-18T09:54:12.709Z,96466.47
2023-07-18T09:56:39.040Z,96473.41
2023-07-18T09:59:05.362Z,96480.81
2023-07-18T10:01:31.703Z,96475.28
2023-07-18T10:03:58.191Z,96476.84
2023-07-18T10:06:24.689Z,96480.66
2023-07-18T10:08:51.039Z,96475.28
2023-07-18T10:11:17.652Z,96473.84
2023-07-18T10:13:44.160Z,96474.00
2023-07-18T10:16:10.505Z,96456.78
2023-07-18T10:18:36.930Z,96469.16
2023-07-18T10:21:03.305Z,96465.66
2023-07-18T10:23:29.643Z,96475.47
2023-07-18T10:25:56.017Z,96471.22
2023-07-18T10:28:22.391Z,96464.09
2023-07-18T10:30:48.857Z,96479.41
2023-07-18T10:33:15.224Z,96485.56
2023-07-18T10:35:41.560Z,96479.56
2023-07-18T10:38:07.933Z,96470.50
2023-07-18T10:40:34.250Z,96465.22
2023-07-18T10:43:00.641Z,96456.72
2023-07-18T10:45:26.980Z,96462.09
2023-07-18T10:47:53.387Z,96461.63
2023-07-18T10:50:20.639Z,96475.03
2023-07-18T10:52:47.121Z,96478.06
2023-07-18T10:55:13.448Z,96483.28
2023-07-18T10:57:39.770Z,96494.03
2023-07-18T11:00:06.162Z,96491.81
2023-07-18T11:02:32.612Z,96495.63
2023-07-18T11:04:58.968Z,96503.94
2023-07-18T11:07:25.301Z,96502.47
2023-07-18T11:09:51.627Z,96506.53
2023-07-18T11:12:18.019Z,96511.09
2023-07-18T11:14:44.411Z,96506.25
2023-07-18T11:17:10.782Z,96493.75
2023-07-18T11:19:37.309Z,96481.56
2023-07-18T11:22:03.641Z,96480.44
2023-07-18T11:24:30.020Z,96474.56
2023-07-18T11:26:56.473Z,96468.53
2023-07-18T11:29:22.798Z,96479.28
2023-07-18T11:31:49.634Z,96492.63
2023-07-18T11:34:16.436Z,96501.97
2023-07-18T11:36:42.798Z,96505.88
2023-07-18T11:39:09.184Z,96504.66
2023-07-18T11:41:35.527Z,96503.53
2023-07-18T11:44:01.913Z,96501.97
2023-07-18T11:46:28.301Z,96488.63
2023-07-18T11:48:54.896Z,96496.09
2023-07-18T11:51:21.668Z,96493.19
2023-07-18T11:53:48.194Z,96487.16
2023-07-18T11:56:14.576Z,96470.88
2023-07-18T11:58:40.901Z,96471.31
2023-07-18T12:01:07.230Z,96466.91
2023-07-18T12:03:33.692Z,96449.81
2023-07-18T12:06:00.103Z,96447.59
2023-07-18T12:08:26.507Z,96453.63
2023-07-18T12:11:04.243Z,96461.50
2023-07-18T12:13:35.551Z,96444.06
2023-07-18T12:16:01.934Z,96457.28
2023-07-18T12:18:28.305Z,96457.75
2023-07-18T12:20:54.717Z,96451.16
2023-07-18T12:23:21.045Z,96441.06
2023-07-18T12:25:47.366Z,96426.13
2023-07-18T12:28:13.749Z,96411.44
2023-07-18T12:30:40.212Z,96393.41
2023-07-18T12:33:08.779Z,96394.75
2023-07-18T12:35:36.684Z,96382.63
2023-07-18T12:38:03.093Z,96360.50
2023-07-18T12:40:29.518Z,96347.00
2023-07-18T12:42:56.020Z,96348.03
2023-07-18T12:45:24.729Z,96353.72
2023-07-18T12:47:52.079Z,96342.28
2023-07-18T12:50:18.473Z,96328.34
2023-07-18T12:52:44.851Z,96321.47
2023-07-18T12:55:11.173Z,96337.88
2023-07-18T12:57:37.581Z,96339.53
2023-07-18T13:00:03.919Z,96332.66
2023-07-18T13:02:30.302Z,96328.81
2023-07-18T13:04:56.719Z,96334.22
2023-07-18T13:07:23.071Z,96322.75
2023-07-18T13:09:49.443Z,96297.38
2023-07-18T13:12:15.839Z,96300.63
2023-07-18T13:14:42.174Z,96302.97
2023-07-18T13:17:08.549Z,96312.63
2023-07-18T13:19:34.937Z,96327.25
2023-07-18T13:22:01.317Z,96307.50
2023-07-18T13:24:27.729Z,96297.50
2023-07-18T13:26:54.132Z,96291.34
2023-07-18T13:29:20.511Z,96286.59
2023-07-18T13:31:46.922Z,96285.69
2023-07-18T13:34:14.536Z,96220.31
2023-07-18T13:36:41.108Z,96266.09
2023-07-18T13:39:07.442Z,96316.59
2023-07-18T13:41:33.862Z,96336.38
2023-07-18T13:44:00.224Z,96297.38
2023-07-18T13:46:26.735Z,96284.41
2023-07-18T13:48:53.217Z,96257.19
2023-07-18T13:51:19.525Z,96315.00
2023-07-18T13:53:45.946Z,96396.13
2023-07-18T13:56:12.329Z,96416.41
2023-07-18T13:58:38.707Z,96407.94
2023-07-18T14:01:05.048Z,96340.59
2023-07-18T14:03:35.765Z,96317.72
2023-07-18T14:06:03.264Z,96290.09
2023-07-18T14:08:29.626Z,96251.28
2023-07-18T14:10:56.010Z,96316.38
2023-07-18T14:13:22.393Z,96271.41
2023-07-18T14:15:48.819Z,96281.25
2023-07-18T14:18:15.325Z,96340.88
2023-07-18T14:20:41.749Z,96354.56
2023-07-18T14:23:08.128Z,96364.97
2023-07-18T14:25:34.531Z,96407.44
2023-07-18T14:28:00.931Z,96354.44
2023-07-18T14:30:27.277Z,96270.22
2023-07-18T14:32:53.651Z,96289.97
2023-07-18T14:35:20.027Z,96233.75
2023-07-18T14:37:46.370Z,96284.88
2023-07-18T14:40:12.762Z,96335.50
2023-07-18T14:42:39.198Z,96329.88
2023-07-18T14:45:05.589Z,96324.94
2023-07-18T14:47:31.986Z,96311.66
2023-07-18T14:49:58.407Z,96294.81
2023-07-18T14:52:24.793Z,96321.75
2023-07-18T14:54:51.120Z,96330.75
2023-07-18T14:57:17.523Z,96295.25
2023-07-18T14:59:43.858Z,96307.19
2023-07-18T15:02:10.187Z,96335.91
2023-07-18T15:04:36.604Z,96304.25
2023-07-18T15:07:02.942Z,96268.28
2023-07-18T15:09:29.345Z,96261.97
2023-07-18T15:11:55.719Z,96286.72
2023-07-18T15:14:22.128Z,96285.91
2023-07-18T15:16:48.477Z,96273.66
2023-07-18T15:19:14.836Z,96281.50
2023-07-18T15:21:41.200Z,96289.00
2023-07-18T15:24:07.537Z,96293.38
2023-07-18T15:26:33.886Z,96301.97
2023-07-18T15:29:00.217Z,96296.72
2023-07-18T15:31:26.648Z,96298.47
2023-07-18T15:33:53.035Z,96290.34
2023-07-18T15:36:19.506Z,96278.22
2023-07-18T15:38:46.568Z,96281.56
2023-07-18T15:41:12.962Z,96270.41
2023-07-18T15:43:39.276Z,96292.75
2023-07-18T15:46:05.666Z,96298.84
2023-07-18T15:48:32.032Z,96281.19
2023-07-18T15:50:58.404Z,96273.47
2023-07-18T15:53:24.730Z,96263.78
2023-07-18T15:55:52.772Z,96263.38
2023-07-18T15:58:19.386Z,96226.31
2023-07-18T16:00:45.753Z,96278.66
2023-07-18T16:03:12.238Z,96258.22
2023-07-18T16:05:38.664Z,96211.00
2023-07-18T16:08:05.043Z,96237.75
2023-07-18T16:10:31.398Z,96239.34
2023-07-18T16:12:57.793Z,96236.66
2023-07-18T16:15:24.152Z,96259.44
2023-07-18T16:17:50.537Z,96267.88
2023-07-18T16:20:16.909Z,96264.72
2023-07-18T16:22:43.305Z,96253.94
2023-07-18T16:25:09.757Z,96246.28
2023-07-18T16:27:36.169Z,96248.06
2023-07-18T16:30:02.502Z,96224.91
2023-07-18T16:32:29.789Z,96203.50
2023-07-18T16:34:57.798Z,96224.63
2023-07-18T16:37:24.173Z,96254.13
2023-07-18T16:39:50.580Z,96249.00
2023-07-18T16:42:24.044Z,96253.53
2023-07-18T16:44:51.104Z,96261.97
2023-07-18T16:47:17.492Z,96247.94
2023-07-18T16:49:43.925Z,96199.34
2023-07-18T16:52:10.243Z,96188.13
2023-07-18T16:54:36.702Z,96114.38
2023-07-18T16:57:03.092Z,96184.72
2023-07-18T16:59:29.443Z,96177.25
2023-07-18T17:01:55.821Z,96199.94
2023-07-18T17:04:22.241Z,96188.25
2023-07-18T17:06:48.613Z,96205.22
2023-07-18T17:09:14.938Z,96214.19
2023-07-18T17:11:41.277Z,96217.59
2023-07-18T17:14:07.606Z,96207.59
2023-07-18T17:16:34.020Z,96196.28
2023-07-18T17:19:00.365Z,96201.53
2023-07-18T17:21:26.747Z,96193.09
2023-07-18T17:23:53.136Z,96204.03
2023-07-18T17:26:19.688Z,96194.25
2023-07-18T17:28:46.240Z,96183.00
2023-07-18T17:31:12.651Z,96206.97
2023-07-18T17:33:39.001Z,96209.16
2023-07-18T17:36:05.390Z,96183.00
2023-07-18T17:38:31.829Z,96165.69
2023-07-18T17:40:58.247Z,96169.31
2023-07-18T17:43:24.608Z,96203.22
2023-07-18T17:45:50.957Z,96200.16
2023-07-18T17:48:17.344Z,96194.84
2023-07-18T17:50:43.739Z,96187.03
2023-07-18T17:53:10.075Z,96198.63
2023-07-18T17:55:36.513Z,96187.22
2023-07-18T17:58:02.838Z,96184.88
2023-07-18T18:00:29.174Z,96182.78
2023-07-18T18:02:55.730Z,96188.88
2023-07-18T18:05:22.182Z,96212.28
2023-07-18T18:07:48.554Z,96209.00
2023-07-18T18:10:14.951Z,96196.22
2023-07-18T18:12:41.335Z,96200.91
2023-07-18T18:15:07.687Z,96208.44
2023-07-18T18:17:34.111Z,96203.25
2023-07-18T18:20:00.518Z,96206.63
2023-07-18T18:22:26.994Z,96210.00
2023-07-18T18:24:53.354Z,96203.50
2023-07-18T18:27:19.737Z,96211.88
2023-07-18T18:29:46.118Z,96209.19
2023-07-18T18:32:12.496Z,96215.84
2023-07-18T18:34:42.736Z,96214.28
2023-07-18T18:37:13.805Z,96208.44
2023-07-18T18:39:40.160Z,96216.53
2023-07-18T18:42:06.530Z,96225.53
2023-07-18T18:44:32.911Z,96231.44
2023-07-18T18:46:59.291Z,96231.50
2023-07-18T18:49:27.496Z,96236.91
2023-07-18T18:51:54.166Z,96235.41
2023-07-18T18:54:20.621Z,96239.00
2023-07-18T18:56:47.012Z,96236.22
2023-07-18T18:59:13.377Z,96230.59
2023-07-18T19:01:39.727Z,96223.38
2023-07-18T19:04:06.186Z,96214.38
2023-07-18T19:06:32.608Z,96207.78
2023-07-18T19:08:58.953Z,96204.00
2023-07-18T19:11:25.608Z,96209.50
2023-07-18T19:13:52.177Z,96212.41
2023-07-18T19:16:32.896Z,96212.88
2023-07-18T19:19:04.814Z,96213.44
2023-07-18T19:21:31.193Z,96217.13
2023-07-18T19:23:57.560Z,96214.66
2023-07-18T19:26:23.935Z,96207.72
2023-07-18T19:28:50.274Z,96223.72
2023-07-18T19:31:16.685Z,96231.72
2023-07-18T19:33:43.105Z,96231.25
2023-07-18T19:36:09.500Z,96228.09
2023-07-18T19:38:37.925Z,96234.94
2023-07-18T19:41:05.747Z,96239.31
2023-07-18T19:43:32.099Z,96250.94
2023-07-18T19:45:58.469Z,96242.22
2023-07-18T19:48:24.912Z,96258.81
2023-07-18T19:50:51.293Z,96263.84
2023-07-18T19:53:17.658Z,96265.03
2023-07-18T19:55:44.040Z,96271.53
2023-07-18T19:58:10.374Z,96260.22
2023-07-18T20:00:36.721Z,96271.38
2023-07-18T20:03:03.137Z,96253.56
2023-07-18T20:05:29.589Z,96255.59
2023-07-18T20:07:55.955Z,96259.41
2023-07-18T20:10:22.294Z,96258.75
2023-07-18T20:12:48.633Z,96269.75
2023-07-18T20:15:15.021Z,96270.22
2023-07-18T20:17:41.432Z,96273.31
2023-07-18T20:20:07.921Z,96278.16
2023-07-18T20:22:34.402Z,96274.03
2023-07-18T20:25:00.803Z,96267.06
2023-07-18T20:27:27.198Z,96264.25
2023-07-18T20:29:53.590Z,96272.19
2023-07-18T20:32:19.942Z,96269.50
2023-07-18T20:34:46.373Z,96278.03
2023-07-18T20:37:12.784Z,96269.50
2023-07-18T20:39:39.169Z,96275.78
2023-07-18T20:42:05.586Z,96280.25
2023-07-18T20:44:31.988Z,96288.13
2023-07-18T20:46:58.378Z,96291.25
2023-07-18T20:49:24.756Z,96288.13
2023-07-18T20:51:51.120Z,96285.41
2023-07-18T20:54:17.486Z,96294.31
2023-07-18T20:56:43.861Z,96299.44
2023-07-18T20:59:10.230Z,96311.50
2023-07-18T21:01:36.668Z,96300.75
2023-07-18T21:04:03.234Z,96293.38
2023-07-18T21:06:29.598Z,96301.00
2023-07-18T21:08:55.940Z,96298.50
2023-07-18T21:11:22.567Z,96293.13
2023-07-18T21:13:49.091Z,96300.38
2023-07-18T21:16:15.497Z,96299.09
2023-07-18T21:18:41.925Z,96304.16
2023-07-18T21:21:08.351Z,96305.50
2023-07-18T21:23:34.691Z,96307.06
2023-07-18T21:26:01.021Z,96306.94
2023-07-18T21:28:27.403Z,96313.47
2023-07-18T21:30:53.780Z,96325.72
2023-07-18T21:33:20.162Z,96315.84
2023-07-18T21:35:46.525Z,96318.19
2023-07-18T21:38:12.894Z,96323.03
2023-07-18T21:40:39.288Z,96322.75
2023-07-18T21:43:05.650Z,96320.94
2023-07-18T21:45:32.092Z,96327.06
2023-07-18T21:47:58.554Z,96327.59
2023-07-18T21:50:24.966Z,96326.66
2023-07-18T21:52:51.301Z,96330.47
2023-07-18T21:55:17.611Z,96337.09
2023-07-18T21:57:44.174Z,96347.22
2023-07-18T22:00:10.575Z,96334.59
2023-07-18T22:02:37.087Z,96331.91
2023-07-18T22:05:03.535Z,96346.59
2023-07-18T22:07:29.936Z,96346.78
2023-07-18T22:09:56.342Z,96338.09
2023-07-18T22:12:22.699Z,96348.38
2023-07-18T22:14:49.088Z,96343.19
2023-07-18T22:17:15.540Z,96351.69
2023-07-18T22:19:41.921Z,96352.44
2023-07-18T22:22:08.230Z,96352.63
2023-07-18T22:24:34.621Z,96359.31
2023-07-18T22:27:00.951Z,96363.56
2023-07-18T22:29:27.279Z,96367.53
2023-07-18T22:31:53.666Z,96371.16
2023-07-18T22:34:19.998Z,96370.22
2023-07-18T22:36:46.316Z,96358.06
2023-07-18T22:39:25.309Z,96369.28
2023-07-18T22:41:58.933Z,96367.06
2023-07-18T22:44:25.249Z,96374.81
2023-07-18T22:46:51.619Z,96370.69
2023-07-18T22:49:18.009Z,96378.41
2023-07-18T22:51:44.395Z,96368.16
2023-07-18T22:54:10.770Z,96365.47
2023-07-18T22:56:37.144Z,96362.97
2023-07-18T22:59:03.479Z,96365.38
2023-07-18T23:01:29.894Z,96372.19
2023-07-18T23:03:56.400Z,96364.91
2023-07-18T23:06:22.894Z,96369.78
2023-07-18T23:08:49.295Z,96361.41
2023-07-18T23:11:15.652Z,96368.97
2023-07-18T23:13:42.062Z,96362.22
2023-07-18T23:16:08.459Z,96370.00
2023-07-18T23:18:35.994Z,96365.28
2023-07-18T23:21:02.355Z,96372.22
2023-07-18T23:23:28.681Z,96373.50
2023-07-18T23:25:55.071Z,96369.88
2023-07-18T23:28:21.468Z,96374.00
2023-07-18T23:30:47.890Z,96374.78
2023-07-18T23:33:14.286Z,96376.38
2023-07-18T23:35:40.681Z,96374.28
2023-07-18T23:38:07.066Z,96377.56
2023-07-18T23:40:33.431Z,96382.00
2023-07-18T23:42:59.752Z,96379.97
2023-07-18T23:45:26.088Z,96380.47
2023-07-18T23:47:52.454Z,96375.78
2023-07-18T23:50:18.904Z,96377.38
2023-07-18T23:52:45.231Z,96366.00
2023-07-18T23:55:11.571Z,96372.63
2023-07-18T23:57:37.992Z,96370.75
